Terminal Aerodrome Forecast
Issued by NWS

Home | Current Version | Previous Version | Text Only | Print | Product List | Glossary On
Versions: 1 2 3 4 5 6 7 8 9 10 11 12 13 14 15 16 17 18
000
FTUS41 KBTV 020955 AAB
TAFSLK
TAF AMD
KSLK 020955Z 0210/0306 22004KT 6SM BR SCT002
      TEMPO 0210/0212 3/4SM BR VV002
     FM021200 23007KT P6SM SKC
     FM021800 23009G16KT P6SM SCT050
     FM030000 22005KT P6SM SCT250=

USA.gov is the U.S. government's official web portal to all federal, state and local government web resources and services.